Juliana Airport, Sint Maarten

4:19 AM AST on April 23, 2017 (GMT -0400)
Island 92 | | Change Station

Elev 35 ft 18.03 °N, 63.09 °W | Updated 27 seconds ago

Partly Cloudy
Partly Cloudy
77.0 °F
Feels Like 79 °F
N
10.9
Wind Variable Wind from ESE
Gusts 19.7 mph

Today
High -- | Low -- °F
--% Chance of Precip.
Yesterday
High -- | Low -- °F
Precip. -- in
Pressure 29.95 in
Visibility 6.2 miles
Clouds Few 2400 ft
Heat Index 79 °F
Dew Point 63 °F
Humidity 62%
Rainfall 0.00 in
Snow Depth Not available.
5:50 AM 6:31 PM
Waning Crescent, 13% visible
METAR TNCM 230800Z 09008KT 060V130 9999 FEW024 25/19 Q1014 A2995
Pressure 29.95 in
Visibility 6.2 miles
Clouds Few 2400 ft
Heat Index 79 °F
Dew Point 63 °F
Humidity 62%
Rainfall 0.00 in
Snow Depth Not available.
5:50 AM 6:31 PM
Waning Crescent, 13% visible
METAR TNCM 230800Z 09008KT 060V130 9999 FEW024 25/19 Q1014 A2995

Get Severe Weather Alerts

Thanks for signing up!

Be on the lookout for a verification email in your inbox.

You'll start receiving the daily forecast at 8 AM.

×

10-Day Weather Forecast

No radar image for this location.
×

Almanac

Astronomy

Apr. 23, 2017 Rise Set
Actual Time
Civil Twilight
Nautical Twilight
Astronomical Twilight
Moon
Length of Visible Light
Length of Day
Tomorrow will be .
, % of the Moon is Illuminated

Today's Extremes

Country Highs Country Lows

Community

WunderPhotos

WunderBlog® & News

Nearby

Air Quality

  Air Quality AQ Index Pollutant
Not available.

Snow Depth

Station Depth Elevation

Earthquake Activity

City Distance Mag. Time & Date
Minimum magnitude displayed is 2.5.

Coastal Water Temperatures

Place Temperature

Stations

Nearby Weather Stations

Station Location Temp. Windchill Dew Point Humidity Wind Precip. Elev Updated Type